Time;durP1;ratioP1;P1;durP2;ratioP2;P2;SDS_P1;SDS_P2;PMS_P1;PMS_P2;Temp;Humidity;BMP_temperature;BMP_pressure;BME280_temperature;BME280_humidity;BME280_pressure;Samples;Min_cycle;Max_cycle;Signal;HPM_P1;HPM_P2
2022/03/04 00:00:00;;;;;;;19.52;5.18;;;;;;;7.58;100.00;100683.22;5040507;28;20021;-78
2022/03/04 00:02:25;;;;;;;21.40;3.90;;;;;;;7.58;100.00;100689.56;5059736;28;20089;-78
2022/03/04 00:04:51;;;;;;;16.48;3.60;;;;;;;7.59;100.00;100690.41;5057676;28;20031;-77
2022/03/04 00:07:16;;;;;;;23.77;4.95;;;;;;;7.58;100.00;100691.50;5082919;28;20082;-78
2022/03/04 00:09:42;;;;;;;21.42;4.90;;;;;;;7.59;100.00;100684.88;5068742;28;20436;-78
2022/03/04 00:12:08;;;;;;;20.98;4.85;;;;;;;7.55;100.00;100689.25;5064819;28;20063;-79
2022/03/04 00:14:33;;;;;;;23.20;4.80;;;;;;;7.55;100.00;100689.25;5049373;28;20136;-78
2022/03/04 00:16:59;;;;;;;22.45;4.88;;;;;;;7.56;100.00;100679.88;5053060;28;20025;-78
2022/03/04 00:19:24;;;;;;;26.20;5.40;;;;;;;7.53;100.00;100685.97;5043991;28;20138;-78
2022/03/04 00:21:50;;;;;;;26.30;5.13;;;;;;;7.53;100.00;100691.47;5053826;28;20388;-78
2022/03/04 00:24:17;;;;;;;19.88;4.43;;;;;;;7.49;100.00;100682.06;5065646;28;20039;-78
2022/03/04 00:26:43;;;;;;;24.58;5.20;;;;;;;7.47;100.00;100684.28;5062729;28;20141;-78
2022/03/04 00:29:08;;;;;;;16.48;4.40;;;;;;;7.49;100.00;100680.13;5046709;28;20103;-78
2022/03/04 00:31:34;;;;;;;19.00;4.35;;;;;;;7.46;100.00;100690.88;5070262;28;20053;-78
2022/03/04 00:34:00;;;;;;;23.58;4.68;;;;;;;7.45;100.00;100689.22;5078982;28;20031;-78
2022/03/04 00:36:26;;;;;;;18.80;4.15;;;;;;;7.47;100.00;100684.28;5057432;28;20404;-77
2022/03/04 00:38:52;;;;;;;29.95;5.07;;;;;;;7.41;100.00;100690.84;5065890;28;20047;-78
2022/03/04 00:41:18;;;;;;;28.45;4.15;;;;;;;7.42;100.00;100689.78;5072222;28;20542;-78
2022/03/04 00:43:44;;;;;;;28.20;4.68;;;;;;;7.37;100.00;100694.16;5048808;28;20032;-78
2022/03/04 00:46:10;;;;;;;28.48;4.28;;;;;;;7.35;100.00;100695.53;5049268;28;20032;-78
2022/03/04 00:48:36;;;;;;;35.17;4.82;;;;;;;7.30;100.00;100687.19;5064932;28;20101;-78
2022/03/04 00:51:01;;;;;;;28.98;5.05;;;;;;;7.27;100.00;100688.59;5081552;28;20036;-78
2022/03/04 00:53:27;;;;;;;27.50;4.00;;;;;;;7.26;100.00;100681.38;5054173;28;20032;-78
2022/03/04 00:55:52;;;;;;;25.85;4.07;;;;;;;7.25;100.00;100679.75;5077961;28;20039;-78
2022/03/04 00:58:18;;;;;;;27.63;3.45;;;;;;;7.24;100.00;100686.34;5065026;28;20032;-78
2022/03/04 01:00:43;;;;;;;22.80;3.80;;;;;;;7.24;100.00;100688.28;5063485;28;20051;-78
2022/03/04 01:03:09;;;;;;;26.35;4.05;;;;;;;7.23;100.00;100687.44;5048386;28;20484;-78
2022/03/04 01:05:34;;;;;;;19.23;3.72;;;;;;;7.20;100.00;100685.22;5066264;28;20028;-78
2022/03/04 01:08:00;;;;;;;24.83;3.95;;;;;;;7.18;100.00;100690.19;5059055;28;20066;-78
2022/03/04 01:10:25;;;;;;;28.80;4.60;;;;;;;7.17;100.00;100688.53;5085232;28;20077;-78
2022/03/04 01:12:51;;;;;;;24.38;4.45;;;;;;;7.14;100.00;100695.41;5060059;28;20063;-78
2022/03/04 01:15:17;;;;;;;28.83;3.60;;;;;;;7.14;100.00;100694.59;5032209;28;20043;-78
2022/03/04 01:17:42;;;;;;;23.15;3.58;;;;;;;7.13;100.00;100695.66;5063737;28;20402;-78
2022/03/04 01:20:11;;;;;;;22.80;3.20;;;;;;;7.12;100.00;100702.31;5078883;28;20058;-78
2022/03/04 01:22:36;;;;;;;24.50;3.92;;;;;;;7.12;100.00;100702.31;5076971;28;20043;-77
2022/03/04 01:25:02;;;;;;;22.40;3.45;;;;;;;7.11;100.00;100700.66;5111421;28;20036;-77
2022/03/04 01:27:28;;;;;;;23.10;3.00;;;;;;;7.11;100.00;100697.88;5047465;28;20029;-77
2022/03/04 01:29:54;;;;;;;28.23;3.55;;;;;;;7.09;100.00;100691.78;5094435;28;20506;-78
2022/03/04 01:32:19;;;;;;;26.95;3.92;;;;;;;7.06;100.00;100697.84;5052374;28;20031;-78
2022/03/04 01:34:45;;;;;;;26.05;3.20;;;;;;;7.07;100.00;100702.25;5048779;28;20040;-77
2022/03/04 01:37:10;;;;;;;21.25;3.15;;;;;;;7.06;100.00;100704.19;5046023;28;20028;-77
2022/03/04 01:39:36;;;;;;;26.13;3.17;;;;;;;7.06;100.00;100703.38;5062168;28;20055;-78
2022/03/04 01:42:02;;;;;;;21.30;3.55;;;;;;;7.06;100.00;100704.19;5069600;28;20429;-77
2022/03/04 01:44:28;;;;;;;23.98;3.40;;;;;;;7.06;100.00;100700.63;5066329;28;20031;-78
2022/03/04 01:46:53;;;;;;;27.95;3.30;;;;;;;7.03;100.00;100693.69;5049530;28;20034;-78
2022/03/04 01:49:18;;;;;;;18.75;2.60;;;;;;;7.01;100.00;100697.81;5081416;28;20054;-78
2022/03/04 01:51:44;;;;;;;24.27;2.88;;;;;;;7.03;100.00;100701.16;5063055;28;20036;-78
2022/03/04 01:54:09;;;;;;;28.05;3.70;;;;;;;6.98;100.00;100707.44;5064478;28;20020;-77
2022/03/04 01:56:35;;;;;;;21.27;3.28;;;;;;;6.98;100.00;100699.16;5047034;28;20512;-77
2022/03/04 01:59:00;;;;;;;20.70;2.85;;;;;;;7.00;100.00;100701.69;5077991;28;20030;-77
2022/03/04 02:01:27;;;;;;;16.60;3.17;;;;;;;6.98;100.00;100703.88;5049217;28;20032;-77
2022/03/04 02:03:52;;;;;;;19.60;3.03;;;;;;;6.93;100.00;100708.25;5047116;28;20307;-77
2022/03/04 02:06:18;;;;;;;22.83;3.33;;;;;;;6.94;100.00;100709.94;5079413;28;20090;-78
2022/03/04 02:08:43;;;;;;;28.63;4.53;;;;;;;6.94;100.00;100712.69;5085151;28;20032;-77
2022/03/04 02:11:09;;;;;;;14.40;2.70;;;;;;;6.91;100.00;100712.41;5057999;28;20657;-78
2022/03/04 02:13:37;;;;;;;21.88;3.15;;;;;;;6.93;100.00;100716.53;5063809;28;20024;-78
2022/03/04 02:16:03;;;;;;;15.50;2.60;;;;;;;6.93;100.00;100713.75;5063937;28;20032;-77
2022/03/04 02:18:29;;;;;;;18.98;3.00;;;;;;;6.94;100.00;100717.38;5065247;28;20024;-78
2022/03/04 02:20:54;;;;;;;21.90;3.58;;;;;;;6.94;100.00;100714.63;5066916;28;20035;-77
2022/03/04 02:23:20;;;;;;;15.25;2.80;;;;;;;6.92;100.00;100714.88;5069528;28;20032;-77
2022/03/04 02:25:49;;;;;;;21.40;3.00;;;;;;;6.91;100.00;100713.22;5041208;28;20481;-77
2022/03/04 02:28:15;;;;;;;20.83;3.30;;;;;;;6.92;100.00;100703.00;5087925;28;20057;-78
2022/03/04 02:30:40;;;;;;;21.80;2.75;;;;;;;6.89;100.00;100712.66;5063776;28;20036;-78
2022/03/04 02:33:06;;;;;;;28.23;3.50;;;;;;;6.87;100.00;100711.25;5035690;28;20051;-78
2022/03/04 02:35:33;;;;;;;23.92;3.42;;;;;;;6.88;100.00;100712.91;5067302;28;20427;-77
2022/03/04 02:37:58;;;;;;;19.75;3.03;;;;;;;6.87;100.00;100714.81;5064203;28;20024;-78
2022/03/04 02:40:24;;;;;;;22.67;3.08;;;;;;;6.86;100.00;100710.41;5075240;28;20036;-78
2022/03/04 02:42:50;;;;;;;17.17;3.35;;;;;;;6.84;100.00;100706.25;5057249;28;20727;-78
2022/03/04 02:45:16;;;;;;;19.88;3.35;;;;;;;6.84;100.00;100701.56;5066240;28;20032;-78
2022/03/04 02:47:42;;;;;;;18.42;3.10;;;;;;;6.83;100.00;100712.88;5081951;28;20035;-77
2022/03/04 02:50:08;;;;;;;19.27;2.90;;;;;;;6.80;100.00;100708.72;5065651;28;20024;-77
2022/03/04 02:52:34;;;;;;;31.45;3.25;;;;;;;6.82;100.00;100716.72;5049555;28;20119;-77
2022/03/04 02:54:59;;;;;;;21.92;3.13;;;;;;;6.82;100.00;100709.25;5044677;28;20039;-78
2022/03/04 02:57:25;;;;;;;16.20;2.50;;;;;;;6.82;100.00;100717.53;5034724;28;20024;-77
2022/03/04 02:59:50;;;;;;;14.15;2.88;;;;;;;6.81;100.00;100713.13;5079248;28;20032;-78
2022/03/04 03:02:16;;;;;;;15.35;2.30;;;;;;;6.84;100.00;100709.00;5081470;28;20071;-78
2022/03/04 03:04:41;;;;;;;18.63;2.45;;;;;;;6.83;100.00;100722.00;5048413;28;20423;-78
2022/03/04 03:07:07;;;;;;;23.15;3.65;;;;;;;6.82;100.00;100717.53;5081367;28;20036;-78
2022/03/04 03:09:32;;;;;;;16.65;3.15;;;;;;;6.82;100.00;100720.31;5063484;28;20036;-77
2022/03/04 03:11:58;;;;;;;18.73;2.88;;;;;;;6.79;100.00;100720.00;5045831;28;20035;-78
2022/03/04 03:14:23;;;;;;;17.00;3.20;;;;;;;6.79;100.00;100720.84;5063092;28;20029;-78
2022/03/04 03:16:49;;;;;;;17.80;3.03;;;;;;;6.80;100.00;100722.53;5055715;28;20028;-78
2022/03/04 03:19:14;;;;;;;22.55;3.03;;;;;;;6.82;100.00;100719.47;5084036;28;20031;-78
2022/03/04 03:21:40;;;;;;;19.42;2.95;;;;;;;6.79;100.00;100720.84;5092003;28;20027;-78
2022/03/04 03:24:06;;;;;;;24.10;4.20;;;;;;;6.79;100.00;100717.25;5065893;28;20032;-78
2022/03/04 03:26:32;;;;;;;19.58;3.65;;;;;;;6.79;100.00;100720.84;5075991;28;20089;-78
2022/03/04 03:28:57;;;;;;;16.67;3.50;;;;;;;6.76;100.00;100721.38;5062243;28;20038;-78
2022/03/04 03:31:23;;;;;;;22.02;3.42;;;;;;;6.76;100.00;100715.84;5080990;28;20471;-78
2022/03/04 03:33:48;;;;;;;19.70;3.80;;;;;;;6.76;100.00;100724.13;5037682;28;20020;-78
2022/03/04 03:36:14;;;;;;;19.90;3.47;;;;;;;6.74;100.00;100723.53;5048064;28;20024;-78
2022/03/04 03:38:39;;;;;;;19.02;3.50;;;;;;;6.72;100.00;100731.28;5063155;28;20032;-78
2022/03/04 03:41:05;;;;;;;24.23;3.33;;;;;;;6.69;100.00;100731.81;5049071;28;20037;-78
2022/03/04 03:43:30;;;;;;;17.90;3.53;;;;;;;6.69;100.00;100734.56;5065364;28;20403;-78
2022/03/04 03:45:56;;;;;;;21.90;3.63;;;;;;;6.68;100.00;100739.22;5061206;28;20028;-78
2022/03/04 03:48:21;;;;;;;18.77;3.25;;;;;;;6.69;100.00;100737.34;5067833;28;20039;-78
2022/03/04 03:50:47;;;;;;;19.80;3.55;;;;;;;6.70;100.00;100750.03;5062153;28;20089;-78
2022/03/04 03:53:12;;;;;;;20.83;3.42;;;;;;;6.69;100.00;100748.38;5050495;28;20089;-78
2022/03/04 03:55:38;;;;;;;19.08;2.80;;;;;;;6.70;100.00;100744.50;5078639;28;20032;-78
2022/03/04 03:58:03;;;;;;;19.48;3.22;;;;;;;6.69;100.00;100740.09;5088944;28;20442;-78
2022/03/04 04:00:29;;;;;;;21.20;4.32;;;;;;;6.65;100.00;100744.47;5060246;28;20043;-78
2022/03/04 04:02:54;;;;;;;17.30;2.92;;;;;;;6.67;100.00;100743.09;5055489;28;20032;-78
2022/03/04 04:05:20;;;;;;;14.65;3.47;;;;;;;6.66;100.00;100740.63;5060899;28;20031;-78
2022/03/04 04:07:45;;;;;;;20.15;3.38;;;;;;;6.67;100.00;100750.56;5066187;28;20096;-78
2022/03/04 04:10:11;;;;;;;16.05;3.10;;;;;;;6.68;100.00;100749.44;5044749;28;20036;-78
2022/03/04 04:12:36;;;;;;;14.35;2.75;;;;;;;6.67;100.00;100734.81;5099206;28;20036;-78
2022/03/04 04:15:02;;;;;;;24.77;3.83;;;;;;;6.64;100.00;100738.09;5015894;28;20033;-78
2022/03/04 04:17:27;;;;;;;19.50;3.55;;;;;;;6.64;100.00;100737.28;5047112;28;20024;-78
2022/03/04 04:19:53;;;;;;;19.15;3.10;;;;;;;6.61;100.00;100735.06;5044023;28;20507;-78
2022/03/04 04:22:19;;;;;;;25.67;3.33;;;;;;;6.62;100.00;100728.44;5044417;28;20385;-78
2022/03/04 04:24:45;;;;;;;26.67;3.60;;;;;;;6.61;100.00;100735.06;5028466;28;20128;-78
2022/03/04 04:27:10;;;;;;;19.65;3.00;;;;;;;6.59;100.00;100734.47;5047365;28;20028;-77
2022/03/04 04:29:36;;;;;;;18.08;3.72;;;;;;;6.60;100.00;100744.41;5077827;28;20057;-78
2022/03/04 04:32:02;;;;;;;22.98;3.75;;;;;;;6.59;100.00;100735.28;5050165;28;20031;-78
2022/03/04 04:34:27;;;;;;;26.60;3.75;;;;;;;6.58;100.00;100730.88;5028486;28;20538;-78
2022/03/04 04:36:53;;;;;;;17.67;2.90;;;;;;;6.56;100.00;100737.75;5038321;28;20024;-78
2022/03/04 04:39:18;;;;;;;21.67;3.10;;;;;;;6.55;100.00;100736.09;5043017;28;20033;-78
2022/03/04 04:41:44;;;;;;;21.80;3.15;;;;;;;6.56;100.00;100743.28;5047538;28;20032;-78
2022/03/04 04:44:10;;;;;;;21.20;3.03;;;;;;;6.53;100.00;100739.09;5068867;28;20039;-78
2022/03/04 04:46:35;;;;;;;21.30;2.90;;;;;;;6.54;100.00;100740.75;5046470;28;20047;-78
2022/03/04 04:49:01;;;;;;;16.85;2.83;;;;;;;6.53;100.00;100739.09;5049206;28;20040;-78
2022/03/04 04:51:26;;;;;;;17.63;2.88;;;;;;;6.54;100.00;100740.75;5064752;28;20555;-78
2022/03/04 04:53:53;;;;;;;17.77;2.83;;;;;;;6.55;100.00;100741.63;5043008;28;20015;-78
2022/03/04 04:56:19;;;;;;;20.63;2.90;;;;;;;6.54;100.00;100746.28;5066428;28;20037;-78
2022/03/04 04:58:45;;;;;;;15.40;2.80;;;;;;;6.52;100.00;100742.13;5073053;28;20107;-78
2022/03/04 05:01:10;;;;;;;15.80;2.75;;;;;;;6.53;100.00;100746.56;5028746;28;20413;-78
2022/03/04 05:03:36;;;;;;;20.83;3.22;;;;;;;6.49;100.00;100747.09;5046711;28;20036;-78
2022/03/04 05:06:02;;;;;;;18.95;3.42;;;;;;;6.48;100.00;100753.69;5060762;28;20036;-78
2022/03/04 05:08:29;;;;;;;19.23;3.25;;;;;;;6.49;100.00;100755.38;5060096;28;20056;-78
2022/03/04 05:10:58;;;;;;;18.70;3.88;;;;;;;6.49;100.00;100760.03;5085632;28;20031;-78
2022/03/04 05:13:23;;;;;;;17.67;3.03;;;;;;;6.46;100.00;100761.41;5070028;28;20507;-77
2022/03/04 05:15:49;;;;;;;24.08;3.58;;;;;;;6.43;100.00;100759.16;5048126;28;20081;-77
2022/03/04 05:18:14;;;;;;;18.15;3.45;;;;;;;6.44;100.00;100763.59;5072593;28;20035;-77
2022/03/04 05:20:40;;;;;;;18.65;2.80;;;;;;;6.41;100.00;100774.31;5039782;28;20032;-78
2022/03/04 05:23:05;;;;;;;17.35;3.28;;;;;;;6.43;100.00;100772.94;5068025;28;20032;-78
2022/03/04 05:25:31;;;;;;;14.88;2.88;;;;;;;6.45;100.00;100780.97;5049934;28;20035;-78
2022/03/04 05:27:56;;;;;;;16.98;3.13;;;;;;;6.47;100.00;100778.78;5073193;28;20039;-78
2022/03/04 05:30:22;;;;;;;22.75;3.25;;;;;;;6.44;100.00;100782.06;5097480;28;20021;-78
2022/03/04 05:32:47;;;;;;;19.88;3.67;;;;;;;6.45;100.00;100790.06;5072409;28;20434;-77
2022/03/04 05:35:13;;;;;;;18.52;3.33;;;;;;;6.47;100.00;100790.66;5063506;28;20035;-78
2022/03/04 05:37:39;;;;;;;17.25;3.40;;;;;;;6.47;100.00;100790.66;5074195;28;20016;-78
2022/03/04 05:40:06;;;;;;;18.38;4.07;;;;;;;6.47;100.00;100804.44;5065670;28;20024;-78
2022/03/04 05:42:32;;;;;;;18.80;4.03;;;;;;;6.48;100.00;100797.81;5050091;28;20024;-77
2022/03/04 05:44:57;;;;;;;18.70;4.00;;;;;;;6.45;100.00;100789.25;5063920;28;20035;-78
2022/03/04 05:47:23;;;;;;;17.85;3.30;;;;;;;6.45;100.00;100794.75;5076483;28;20384;-77
2022/03/04 05:49:48;;;;;;;15.20;3.40;;;;;;;6.45;100.00;100811.31;5062117;28;20024;-78
2022/03/04 05:52:14;;;;;;;19.35;3.70;;;;;;;6.44;100.00;100807.72;5065702;28;20032;-78
2022/03/04 05:54:39;;;;;;;18.27;3.90;;;;;;;6.43;100.00;100805.22;5034116;28;20036;-77
2022/03/04 05:57:05;;;;;;;26.63;4.72;;;;;;;6.44;100.00;100810.50;5063111;28;20043;-74
2022/03/04 05:59:31;;;;;;;18.38;3.80;;;;;;;6.44;100.00;100802.22;5064909;28;20039;-74
2022/03/04 06:01:56;;;;;;;18.10;3.78;;;;;;;6.44;100.00;100806.91;5045409;28;20036;-74
2022/03/04 06:04:22;;;;;;;17.90;3.83;;;;;;;6.45;100.00;100823.19;5095650;28;20047;-74
2022/03/04 06:06:48;;;;;;;21.88;3.97;;;;;;;6.45;100.00;100819.59;5061947;28;20059;-74
2022/03/04 06:09:13;;;;;;;25.20;5.00;;;;;;;6.43;100.00;100814.31;5083275;28;20056;-74
2022/03/04 06:11:39;;;;;;;20.65;4.13;;;;;;;6.41;100.00;100818.47;5075852;28;23511;-74
2022/03/04 06:14:06;;;;;;;11.60;3.38;;;;;;;6.41;100.00;100823.97;5025984;28;20054;-74
2022/03/04 06:16:31;;;;;;;12.52;3.75;;;;;;;6.40;100.00;100823.13;5079320;28;20031;-74
2022/03/04 06:18:57;;;;;;;18.75;4.57;;;;;;;6.41;100.00;100822.03;5096552;28;20036;-74
2022/03/04 06:21:22;;;;;;;22.45;3.97;;;;;;;6.41;100.00;100830.31;5051122;28;20085;-74
2022/03/04 06:23:48;;;;;;;24.02;5.40;;;;;;;6.39;100.00;100832.50;5073972;28;20032;-74
2022/03/04 06:26:13;;;;;;;20.90;3.92;;;;;;;6.40;100.00;100831.41;5060114;28;20082;-74
2022/03/04 06:28:39;;;;;;;14.35;3.90;;;;;;;6.40;100.00;100845.19;5067781;28;20499;-74
2022/03/04 06:31:04;;;;;;;18.50;4.25;;;;;;;6.40;100.00;100852.63;5080346;28;20025;-74
2022/03/04 06:33:30;;;;;;;20.45;4.28;;;;;;;6.40;100.00;100845.19;5063039;28;20035;-73
2022/03/04 06:35:56;;;;;;;20.75;4.38;;;;;;;6.40;100.00;100849.88;5079242;28;20477;-74
2022/03/04 06:38:21;;;;;;;21.80;4.57;;;;;;;6.39;100.00;100854.56;5096434;28;20027;-74
2022/03/04 06:40:47;;;;;;;24.27;4.90;;;;;;;6.35;100.00;100853.44;5062804;28;20655;-74
2022/03/04 06:43:13;;;;;;;18.52;4.53;;;;;;;6.36;100.00;100855.09;5063118;28;20047;-74
2022/03/04 06:45:42;;;;;;;24.75;4.97;;;;;;;6.36;100.00;100857.03;5076343;28;20028;-74
2022/03/04 06:48:09;;;;;;;17.40;3.55;;;;;;;6.36;100.00;100852.34;5062827;28;20051;-74
2022/03/04 06:50:34;;;;;;;12.18;3.78;;;;;;;6.34;100.00;100861.94;5083126;28;20032;-74
2022/03/04 06:53:00;;;;;;;18.80;3.88;;;;;;;6.34;100.00;100860.03;5059881;28;20025;-74
2022/03/04 06:55:25;;;;;;;17.67;4.03;;;;;;;6.32;100.00;100859.44;5073728;28;20441;-74
2022/03/04 06:57:51;;;;;;;17.10;3.85;;;;;;;6.34;100.00;100868.28;5082868;28;20029;-74
2022/03/04 07:00:17;;;;;;;19.23;5.32;;;;;;;6.30;100.00;100869.91;5074894;28;20032;-74
2022/03/04 07:02:43;;;;;;;18.48;4.85;;;;;;;6.35;100.00;100882.91;5049059;28;20036;-74
2022/03/04 07:05:09;;;;;;;25.45;5.65;;;;;;;6.31;100.00;100885.38;5049291;28;20044;-74
2022/03/04 07:07:34;;;;;;;28.27;5.00;;;;;;;6.32;100.00;100881.50;5079514;28;20047;-74
2022/03/04 07:10:00;;;;;;;22.30;5.20;;;;;;;6.31;100.00;100884.53;5048046;28;20059;-74
2022/03/04 07:12:26;;;;;;;20.08;5.25;;;;;;;6.31;100.00;100890.88;5063871;28;20027;-71
2022/03/04 07:14:51;;;;;;;25.88;5.63;;;;;;;6.32;100.00;100887.03;5061831;28;20020;-71
2022/03/04 07:17:17;;;;;;;21.40;5.03;;;;;;;6.33;100.00;100888.72;5042764;28;20024;-71
2022/03/04 07:19:42;;;;;;;19.60;4.28;;;;;;;6.34;100.00;100882.09;5049405;28;20040;-71
2022/03/04 07:22:08;;;;;;;22.08;4.60;;;;;;;6.33;100.00;100888.72;5073011;28;20028;-71
2022/03/04 07:24:33;;;;;;;22.85;4.97;;;;;;;6.39;100.00;100895.94;5078771;28;20032;-72
2022/03/04 07:26:59;;;;;;;16.98;4.13;;;;;;;6.40;100.00;100905.88;5073699;28;20021;-72
2022/03/04 07:29:26;;;;;;;23.42;3.90;;;;;;;6.38;100.00;100897.06;5057749;28;20040;-72
2022/03/04 07:31:53;;;;;;;16.48;3.33;;;;;;;6.39;100.00;100900.66;5085648;28;20032;-72
2022/03/04 07:34:19;;;;;;;13.40;3.78;;;;;;;6.40;100.00;100905.06;5078295;28;20114;-73
2022/03/04 07:36:45;;;;;;;21.27;3.92;;;;;;;6.42;100.00;100900.13;5064865;28;20056;-73
2022/03/04 07:39:10;;;;;;;18.27;3.50;;;;;;;6.42;100.00;100902.88;5077812;28;20032;-73
2022/03/04 07:41:36;;;;;;;18.77;3.72;;;;;;;6.41;100.00;100904.81;5074395;28;20040;-73
2022/03/04 07:44:02;;;;;;;23.35;3.92;;;;;;;6.43;100.00;100910.06;5070922;28;20017;-74
2022/03/04 07:46:27;;;;;;;19.83;3.55;;;;;;;6.42;100.00;100909.22;5067897;28;20032;-73
2022/03/04 07:48:52;;;;;;;18.50;3.78;;;;;;;6.45;100.00;100913.41;5072279;28;20443;-73
2022/03/04 07:51:18;;;;;;;17.45;3.60;;;;;;;6.46;100.00;100904.03;5062907;28;20507;-72
2022/03/04 07:53:43;;;;;;;22.35;4.57;;;;;;;6.46;100.00;100918.69;5073357;28;20033;-70
2022/03/04 07:56:10;;;;;;;21.42;4.65;;;;;;;6.51;100.00;100917.06;5064602;28;20033;-76
2022/03/04 07:58:35;;;;;;;23.00;5.38;;;;;;;6.57;100.00;100918.78;5064660;28;20028;-70
2022/03/04 08:01:01;;;;;;;24.98;5.45;;;;;;;6.57;100.00;100922.38;5078372;28;20036;-75
2022/03/04 08:03:26;;;;;;;24.27;5.78;;;;;;;6.58;100.00;100928.75;5074874;28;20024;-76
2022/03/04 08:05:52;;;;;;;23.50;6.93;;;;;;;6.59;100.00;100931.25;5041571;28;20041;-76
2022/03/04 08:08:17;;;;;;;21.52;5.65;;;;;;;6.60;100.00;100935.69;5056175;28;20056;-76
2022/03/04 08:10:43;;;;;;;24.17;5.45;;;;;;;6.63;100.00;100942.59;5056490;28;20036;-76
2022/03/04 08:13:08;;;;;;;16.50;5.57;;;;;;;6.64;100.00;100944.28;5026967;28;20393;-76
2022/03/04 08:15:34;;;;;;;22.85;5.05;;;;;;;6.65;100.00;100944.00;5051595;28;20381;-76
2022/03/04 08:17:59;;;;;;;20.70;4.07;;;;;;;6.69;100.00;100947.09;5048034;28;20540;-76
2022/03/04 08:20:26;;;;;;;19.00;4.50;;;;;;;6.70;100.00;100946.00;5043088;28;20033;-76
2022/03/04 08:22:53;;;;;;;24.40;4.05;;;;;;;6.75;100.00;100951.59;5058962;28;20079;-76
2022/03/04 08:25:18;;;;;;;12.75;3.50;;;;;;;6.79;100.00;100946.38;5083267;28;20032;-76
2022/03/04 08:27:44;;;;;;;16.35;2.90;;;;;;;6.81;100.00;100946.97;5046064;28;20040;-76
2022/03/04 08:30:10;;;;;;;21.55;3.60;;;;;;;6.85;100.00;100954.47;5054101;28;20025;-75
2022/03/04 08:32:36;;;;;;;22.40;3.35;;;;;;;6.91;100.00;100960.88;5065504;28;20028;-75
2022/03/04 08:35:03;;;;;;;16.42;2.75;;;;;;;6.93;100.00;100956.75;5044629;28;20041;-75
2022/03/04 08:37:28;;;;;;;17.92;2.92;;;;;;;7.00;100.00;100955.75;5059008;28;20024;-75
2022/03/04 08:39:54;;;;;;;17.80;3.15;;;;;;;7.03;100.00;100950.53;5041886;28;20035;-75
2022/03/04 08:42:20;;;;;;;19.13;3.20;;;;;;;7.11;100.00;100965.81;5059549;28;20037;-75
2022/03/04 08:44:45;;;;;;;18.45;3.00;;;;;;;7.16;100.00;100957.56;5061723;28;20028;-75
2022/03/04 08:47:10;;;;;;;14.68;3.10;;;;;;;7.23;100.00;100969.22;5041868;28;20040;-75
2022/03/04 08:49:36;;;;;;;16.23;2.40;;;;;;;7.28;100.00;100972.06;5065478;28;20025;-75
2022/03/04 08:52:02;;;;;;;14.77;2.88;;;;;;;7.33;100.00;100971.28;5086330;28;20071;-75
2022/03/04 08:54:27;;;;;;;13.88;2.63;;;;;;;7.39;100.00;100968.28;5031758;28;20520;-75
2022/03/04 08:56:53;;;;;;;17.70;2.88;;;;;;;7.46;100.00;100972.75;5029450;28;20528;-76
2022/03/04 08:59:18;;;;;;;17.15;2.65;;;;;;;7.52;100.00;100968.94;5054871;28;20044;-75
2022/03/04 09:01:44;;;;;;;17.38;3.10;;;;;;;7.58;100.00;100970.69;5026615;28;20060;-76
2022/03/04 09:04:13;;;;;;;11.40;2.03;;;;;;;7.65;100.00;100971.28;5065593;28;20031;-76
2022/03/04 09:06:39;;;;;;;16.08;2.97;;;;;;;7.71;100.00;100967.47;5079627;28;20111;-75
2022/03/04 09:09:04;;;;;;;15.23;2.47;;;;;;;7.77;100.00;100977.47;5083675;28;20134;-75
2022/03/04 09:11:30;;;;;;;18.00;3.33;;;;;;;7.77;100.00;100971.94;5075086;28;20033;-75
2022/03/04 09:13:56;;;;;;;20.25;2.97;;;;;;;7.82;100.00;100983.03;5065222;28;20037;-76
2022/03/04 09:16:21;;;;;;;12.65;2.55;;;;;;;7.88;100.00;100985.84;5084716;28;20059;-76
2022/03/04 09:18:47;;;;;;;15.07;2.33;;;;;;;7.94;100.00;100980.09;5067804;28;20039;-76
2022/03/04 09:21:12;;;;;;;13.45;2.40;;;;;;;8.00;100.00;100983.75;5049369;28;20378;-77
2022/03/04 09:23:38;;;;;;;17.95;2.42;;;;;;;8.05;100.00;100987.38;5063380;28;20059;-76
2022/03/04 09:26:03;;;;;;;13.85;2.38;;;;;;;8.14;100.00;100984.94;5041255;28;20033;-76
2022/03/04 09:28:29;;;;;;;14.43;2.78;;;;;;;8.21;100.00;100995.78;5079926;28;20029;-76
2022/03/04 09:30:54;;;;;;;17.17;3.05;;;;;;;8.29;100.00;100993.31;5082039;28;20055;-76
2022/03/04 09:33:32;;;;;;;15.43;2.63;;;;;;;8.34;100.00;100988.94;5076688;28;20079;-78
2022/03/04 09:36:00;;;;;;;19.83;2.10;;;;;;;8.43;100.00;100988.19;5051866;28;20059;-76
2022/03/04 09:38:25;;;;;;;13.43;2.38;;;;;;;8.52;100.00;100988.50;5078398;28;20024;-76
2022/03/04 09:40:51;;;;;;;12.10;2.47;;;;;;;8.56;100.00;100981.34;5061759;28;20025;-76
2022/03/04 09:43:18;;;;;;;16.42;2.25;;;;;;;8.62;100.00;100985.81;5087036;28;20031;-76
2022/03/04 09:45:47;;;;;;;15.43;2.58;;;;;;;8.68;100.00;100989.44;5061079;28;20484;-76
2022/03/04 09:48:12;;;;;;;16.70;2.67;;;;;;;8.72;100.00;100994.16;5063030;28;20056;-76
2022/03/04 09:50:38;;;;;;;12.63;1.73;;;;;;;8.76;98.85;100997.22;5065126;28;20028;-76
2022/03/04 09:53:09;;;;;;;14.88;2.15;;;;;;;8.77;98.21;100995.28;5080769;28;20090;-76
2022/03/04 09:55:34;;;;;;;13.48;2.28;;;;;;;8.83;97.74;100995.06;5065108;28;20032;-76
2022/03/04 09:58:00;;;;;;;17.13;2.40;;;;;;;8.84;97.33;100995.88;5079737;28;20043;-76
2022/03/04 10:00:25;;;;;;;12.68;2.00;;;;;;;8.84;96.66;100996.69;5079373;28;20024;-75
2022/03/04 10:02:51;;;;;;;15.95;2.05;;;;;;;8.85;94.63;101000.31;5078917;28;20107;-75
2022/03/04 10:05:17;;;;;;;11.15;1.90;;;;;;;8.84;94.84;101001.41;5057813;28;20044;-76
2022/03/04 10:07:45;;;;;;;12.20;2.10;;;;;;;8.87;94.20;100995.34;5065439;28;20071;-76
2022/03/04 10:10:12;;;;;;;13.63;2.10;;;;;;;8.86;93.79;100996.41;5064277;28;20066;-76
2022/03/04 10:12:57;;;;;;;7.72;1.40;;;;;;;8.85;93.30;101000.31;5049308;28;20040;-75
2022/03/04 10:15:26;;;;;;;14.20;2.35;;;;;;;8.96;94.95;100996.47;5057086;28;20052;-75
2022/03/04 10:17:59;;;;;;;7.70;1.55;;;;;;;9.01;93.66;100999.25;5078456;28;20031;-76
2022/03/04 10:20:36;;;;;;;11.25;2.00;;;;;;;9.05;92.03;101005.91;5047342;28;20064;-76
2022/03/04 10:23:11;;;;;;;11.38;1.70;;;;;;;9.08;91.71;101004.53;5081679;28;20035;-76
2022/03/04 10:25:37;;;;;;;13.65;1.98;;;;;;;9.07;91.24;101003.72;5079188;28;20031;-76
2022/03/04 10:28:09;;;;;;;13.57;1.73;;;;;;;9.10;89.46;101005.94;5062134;28;20384;-76
2022/03/04 10:30:34;;;;;;;15.05;1.98;;;;;;;9.12;90.58;101005.66;5062144;28;20032;-75
2022/03/04 10:33:07;;;;;;;11.60;2.13;;;;;;;9.18;91.26;101007.34;5063623;28;20051;-76
2022/03/04 10:35:33;;;;;;;8.13;1.67;;;;;;;9.24;91.28;101008.19;5066192;28;20463;-76
2022/03/04 10:37:58;;;;;;;8.30;1.65;;;;;;;9.31;91.07;101003.22;5063202;28;20027;-75
2022/03/04 10:40:45;;;;;;;12.90;2.08;;;;;;;9.43;90.37;101006.56;5063045;28;20032;-76
2022/03/04 10:43:11;;;;;;;8.95;1.27;;;;;;;9.51;89.48;101011.59;5074499;28;20116;-76
2022/03/04 10:45:38;;;;;;;8.25;1.35;;;;;;;9.59;88.39;100994.41;5057200;28;20504;-72
2022/03/04 10:48:07;;;;;;;10.57;1.23;;;;;;;9.68;86.46;101003.00;5048437;28;20031;-73
2022/03/04 10:50:35;;;;;;;8.10;1.70;;;;;;;9.75;86.77;101002.72;5095157;28;20068;-69
2022/03/04 10:53:10;;;;;;;7.68;1.35;;;;;;;9.84;85.79;100989.97;5089544;28;20032;-79
2022/03/04 10:55:44;;;;;;;11.70;1.60;;;;;;;9.91;85.57;101004.38;5049690;28;20024;-79
2022/03/04 10:58:23;;;;;;;10.10;1.75;;;;;;;9.97;84.43;101006.09;5065190;28;20056;-80
2022/03/04 11:00:53;;;;;;;12.68;1.75;;;;;;;10.01;84.47;101003.56;5110736;27;20407;-79
2022/03/04 11:03:20;;;;;;;9.85;2.00;;;;;;;10.08;84.50;101004.09;5064139;28;20123;-78
2022/03/04 11:05:45;;;;;;;10.40;1.90;;;;;;;10.12;84.43;101002.44;5073898;28;20056;-78
2022/03/04 11:08:11;;;;;;;11.48;1.55;;;;;;;10.18;83.61;100994.94;5059091;28;20131;-78
2022/03/04 11:10:36;;;;;;;15.55;1.90;;;;;;;10.21;84.13;101005.50;5045406;28;20034;-76
2022/03/04 11:13:07;;;;;;;8.52;1.75;;;;;;;10.18;82.35;101003.28;5060076;28;20028;-76